createdAt,value
2019-03-01T00:02:16.670Z,30.87
2019-03-01T00:04:46.029Z,33.63
2019-03-01T00:07:27.346Z,37.13
2019-03-01T00:09:59.372Z,39.13
2019-03-01T00:12:30.739Z,37.47
2019-03-01T00:17:59.259Z,42.58
2019-03-01T00:20:49.220Z,35.83
2019-03-01T00:26:24.995Z,43.40
2019-03-01T00:29:02.045Z,31.70
2019-03-01T00:31:39.957Z,31.03
2019-03-01T00:34:13.477Z,26.67
2019-03-01T00:36:47.774Z,25.63
2019-03-01T00:39:32.442Z,27.03
2019-03-01T00:42:26.624Z,28.07
2019-03-01T00:44:54.895Z,28.37
2019-03-01T00:47:22.360Z,27.53
2019-03-01T00:49:49.835Z,26.63
2019-03-01T00:52:17.297Z,26.80
2019-03-01T00:54:45.534Z,24.23
2019-03-01T00:57:13.032Z,24.93
2019-03-01T00:59:41.272Z,26.10
2019-03-01T01:02:08.717Z,22.00
2019-03-01T01:04:36.192Z,22.47
2019-03-01T01:07:03.715Z,23.27
2019-03-01T01:09:31.971Z,23.23
2019-03-01T01:11:59.549Z,23.13
2019-03-01T01:14:27.833Z,21.17
2019-03-01T01:16:56.062Z,22.70
2019-03-01T01:19:23.526Z,20.60
2019-03-01T01:21:51.000Z,21.53
2019-03-01T01:24:18.471Z,22.57
2019-03-01T01:26:46.033Z,22.40
2019-03-01T01:29:13.501Z,23.23
2019-03-01T01:31:40.978Z,23.50
2019-03-01T01:34:08.430Z,24.30
2019-03-01T01:36:35.982Z,23.43
2019-03-01T01:39:04.678Z,24.90
2019-03-01T01:41:32.127Z,24.10
2019-03-01T01:43:59.710Z,23.57
2019-03-01T01:46:27.259Z,23.20
2019-03-01T01:48:54.737Z,25.57
2019-03-01T01:51:22.292Z,26.50
2019-03-01T01:53:49.848Z,22.83
2019-03-01T01:56:17.315Z,26.70
2019-03-01T01:58:44.775Z,26.37
2019-03-01T02:01:12.341Z,25.40
2019-03-01T02:03:39.807Z,26.87
2019-03-01T02:06:07.303Z,30.53
2019-03-01T02:08:35.530Z,27.37
2019-03-01T02:11:04.433Z,28.07
2019-03-01T02:13:31.901Z,28.70
2019-03-01T02:15:59.453Z,28.67
2019-03-01T02:18:26.946Z,29.23
2019-03-01T02:20:54.395Z,29.27
2019-03-01T02:23:21.852Z,32.43
2019-03-01T02:25:49.413Z,32.87
2019-03-01T02:28:16.890Z,28.08
2019-03-01T02:30:45.269Z,30.20
2019-03-01T02:33:12.726Z,29.70
2019-03-01T02:35:40.190Z,32.60
2019-03-01T02:38:07.658Z,30.30
2019-03-01T02:40:35.225Z,29.90
2019-03-01T02:43:03.702Z,31.43
2019-03-01T02:45:31.162Z,31.77
2019-03-01T02:48:00.260Z,31.13
2019-03-01T02:50:27.735Z,34.60
2019-03-01T02:52:55.387Z,34.03
2019-03-01T02:55:22.853Z,30.10
2019-03-01T02:57:51.076Z,33.83
2019-03-01T03:00:21.058Z,30.43
2019-03-01T03:02:49.303Z,33.20
2019-03-01T03:05:16.771Z,33.27
2019-03-01T03:07:48.226Z,30.60
2019-03-01T03:10:15.691Z,33.23
2019-03-01T03:12:43.148Z,32.50
2019-03-01T03:15:10.607Z,31.97
2019-03-01T03:17:38.069Z,32.23
2019-03-01T03:20:05.546Z,30.70
2019-03-01T03:22:33.015Z,33.30
2019-03-01T03:25:00.563Z,32.20
2019-03-01T03:27:27.991Z,33.60
2019-03-01T03:29:55.443Z,35.17
2019-03-01T03:32:22.918Z,35.47
2019-03-01T03:34:51.663Z,35.87
2019-03-01T03:37:19.128Z,34.73
2019-03-01T03:39:46.586Z,34.17
2019-03-01T03:42:14.171Z,36.13
2019-03-01T03:44:42.425Z,35.83
2019-03-01T03:47:09.891Z,34.87
2019-03-01T03:49:37.371Z,34.30
2019-03-01T03:52:05.605Z,35.03
2019-03-01T03:54:33.090Z,33.97
2019-03-01T03:57:00.596Z,33.33
2019-03-01T03:59:28.059Z,31.07
2019-03-01T04:01:55.569Z,31.33
2019-03-01T04:04:23.029Z,33.23
2019-03-01T04:06:50.589Z,33.90
2019-03-01T04:09:18.064Z,35.30
2019-03-01T04:11:45.942Z,32.17
2019-03-01T04:14:13.530Z,34.00
2019-03-01T04:16:41.763Z,33.00
2019-03-01T04:19:09.220Z,33.10
2019-03-01T04:21:36.709Z,32.60
2019-03-01T04:24:04.924Z,32.83
2019-03-01T04:26:32.398Z,35.10
2019-03-01T04:28:59.889Z,36.17
2019-03-01T04:31:28.170Z,36.43
2019-03-01T04:33:56.697Z,33.73
2019-03-01T04:36:24.929Z,32.53
2019-03-01T04:38:52.460Z,33.17
2019-03-01T04:41:19.957Z,34.63
2019-03-01T04:43:47.427Z,39.33
2019-03-01T04:46:14.901Z,41.87
2019-03-01T04:48:43.853Z,36.83
2019-03-01T04:51:11.354Z,42.00
2019-03-01T04:53:38.823Z,41.67
2019-03-01T04:56:06.292Z,39.50
2019-03-01T04:58:33.842Z,40.30
2019-03-01T05:01:02.083Z,38.70
2019-03-01T05:03:30.109Z,38.97
2019-03-01T05:05:57.552Z,40.70
2019-03-01T05:08:25.031Z,39.07
2019-03-01T05:10:52.500Z,43.20
2019-03-01T05:13:20.735Z,40.57
2019-03-01T05:15:48.210Z,46.23
2019-03-01T05:18:15.680Z,43.00
2019-03-01T05:20:43.233Z,39.73
2019-03-01T05:23:10.713Z,41.53
2019-03-01T05:25:38.281Z,38.80
2019-03-01T05:28:05.857Z,39.53
2019-03-01T05:30:33.402Z,45.47
2019-03-01T05:33:00.991Z,42.13
2019-03-01T05:35:28.454Z,44.30
2019-03-01T05:37:56.711Z,43.67
2019-03-01T05:40:24.183Z,38.37
2019-03-01T05:42:51.667Z,42.90
2019-03-01T05:45:20.697Z,43.80
2019-03-01T05:47:48.160Z,40.60
2019-03-01T05:50:15.660Z,45.13
2019-03-01T05:52:43.142Z,40.73
2019-03-01T05:55:10.588Z,41.57
2019-03-01T05:57:44.683Z,33.17
2019-03-01T06:00:12.149Z,29.42
2019-03-01T06:02:50.454Z,28.37
2019-03-01T06:05:18.030Z,26.47
2019-03-01T06:07:48.452Z,20.03
2019-03-01T06:10:23.811Z,17.00
2019-03-01T06:12:53.199Z,20.03
2019-03-01T06:15:24.371Z,15.60
2019-03-01T06:18:03.378Z,15.40
2019-03-01T06:20:47.618Z,13.37
2019-03-01T06:23:25.467Z,12.13
2019-03-01T06:26:12.722Z,11.07
2019-03-01T06:28:45.521Z,11.30
2019-03-01T06:31:21.309Z,9.70
2019-03-01T06:33:54.558Z,9.93
2019-03-01T06:36:35.589Z,9.60
2019-03-01T06:39:31.220Z,8.97
2019-03-01T06:42:07.086Z,8.63
2019-03-01T06:44:39.063Z,9.60
2019-03-01T06:47:24.077Z,9.37
2019-03-01T06:49:57.154Z,7.67
2019-03-01T06:52:24.609Z,6.63
2019-03-01T06:54:52.193Z,6.10
2019-03-01T06:57:19.651Z,6.83
2019-03-01T06:59:47.109Z,5.57
2019-03-01T07:05:08.890Z,7.05
2019-03-01T07:07:36.349Z,6.23
2019-03-01T07:10:04.604Z,5.90
2019-03-01T07:12:32.351Z,4.87
2019-03-01T07:14:59.820Z,5.27
2019-03-01T07:17:27.278Z,4.90
2019-03-01T07:19:54.797Z,5.27
2019-03-01T07:22:23.023Z,4.17
2019-03-01T07:24:50.494Z,4.97
2019-03-01T07:27:18.533Z,4.13
2019-03-01T07:29:46.749Z,4.23
2019-03-01T07:32:14.216Z,4.03
2019-03-01T07:34:41.733Z,4.37
2019-03-01T07:37:09.977Z,4.53
2019-03-01T07:39:37.559Z,3.90
2019-03-01T07:42:05.016Z,3.37
2019-03-01T07:44:32.479Z,3.27
2019-03-01T07:47:00.047Z,3.03
2019-03-01T07:49:27.591Z,2.83
2019-03-01T07:51:55.056Z,3.33
2019-03-01T07:54:22.634Z,2.90
2019-03-01T07:56:50.183Z,3.27
2019-03-01T07:59:17.632Z,3.33
2019-03-01T08:01:45.077Z,2.80
2019-03-01T08:04:12.566Z,2.53
2019-03-01T08:06:40.126Z,2.50
2019-03-01T08:09:10.362Z,3.00
2019-03-01T08:11:37.807Z,2.87
2019-03-01T08:14:05.268Z,2.80
2019-03-01T08:16:32.744Z,3.07
2019-03-01T08:19:00.300Z,2.90
2019-03-01T08:21:27.768Z,2.80
2019-03-01T08:23:55.222Z,3.23
2019-03-01T08:26:23.677Z,2.83
2019-03-01T08:28:51.139Z,2.70
2019-03-01T08:31:21.092Z,3.30
2019-03-01T08:33:46.072Z,3.53
2019-03-01T08:36:13.548Z,2.97
2019-03-01T08:38:41.017Z,3.03
2019-03-01T08:41:08.468Z,3.33
2019-03-01T08:43:36.047Z,3.50
2019-03-01T08:46:05.458Z,4.00
2019-03-01T08:48:33.651Z,3.50
2019-03-01T08:50:58.877Z,2.67
2019-03-01T08:53:27.141Z,2.93
2019-03-01T08:55:54.673Z,3.80
2019-03-01T08:58:22.160Z,2.70
2019-03-01T09:00:59.019Z,3.13
2019-03-01T09:03:27.565Z,3.83
2019-03-01T09:05:55.011Z,3.20
2019-03-01T09:08:23.263Z,2.80
2019-03-01T09:10:50.821Z,2.77
2019-03-01T09:13:18.282Z,2.30
2019-03-01T09:15:46.091Z,2.10
2019-03-01T09:18:14.651Z,1.73
2019-03-01T09:20:41.474Z,2.10
2019-03-01T09:23:22.451Z,1.60
2019-03-01T09:25:36.406Z,1.87
2019-03-01T09:28:04.653Z,1.70
2019-03-01T09:30:32.113Z,1.50
2019-03-01T09:32:59.624Z,1.50
2019-03-01T09:38:22.041Z,1.62
2019-03-01T09:40:49.497Z,1.20
2019-03-01T09:43:16.994Z,1.10
2019-03-01T09:45:45.762Z,1.20
2019-03-01T09:48:12.983Z,1.10
2019-03-01T09:50:41.094Z,0.60
2019-03-01T09:53:08.566Z,1.00
2019-03-01T09:55:37.694Z,0.97
2019-03-01T09:58:04.475Z,0.50
2019-03-01T10:00:40.684Z,0.63
2019-03-01T10:03:08.140Z,0.53
2019-03-01T10:05:35.705Z,0.90
2019-03-01T10:08:04.553Z,0.60
2019-03-01T10:10:32.003Z,0.67
2019-03-01T10:12:59.520Z,0.70
2019-03-01T10:15:27.080Z,1.10
2019-03-01T10:17:54.547Z,0.60
2019-03-01T10:20:22.012Z,0.80
2019-03-01T10:22:50.395Z,0.83
2019-03-01T10:25:17.858Z,0.60
2019-03-01T10:27:46.854Z,0.80
2019-03-01T10:30:24.632Z,1.13
2019-03-01T10:32:52.085Z,0.93
2019-03-01T10:35:19.550Z,1.03
2019-03-01T10:37:47.039Z,1.27
2019-03-01T10:40:15.409Z,3.53
2019-03-01T10:42:42.982Z,1.07
2019-03-01T10:45:13.059Z,0.60
2019-03-01T10:47:40.554Z,0.83
2019-03-01T10:50:08.025Z,1.00
2019-03-01T10:52:35.478Z,1.00
2019-03-01T10:55:03.858Z,1.13
2019-03-01T10:57:32.318Z,0.80
2019-03-01T10:59:59.788Z,0.80
2019-03-01T11:02:27.243Z,0.53
2019-03-01T11:04:54.698Z,0.77
2019-03-01T11:07:22.184Z,1.00
2019-03-01T11:09:49.646Z,1.20
2019-03-01T11:12:17.117Z,1.20
2019-03-01T11:14:44.567Z,1.50
2019-03-01T11:17:12.059Z,1.40
2019-03-01T11:19:39.522Z,1.60
2019-03-01T11:22:07.803Z,1.40
2019-03-01T11:24:35.266Z,1.67
2019-03-01T11:27:12.677Z,1.43
2019-03-01T11:29:32.617Z,1.10
2019-03-01T11:32:00.097Z,1.60
2019-03-01T11:34:27.667Z,1.50
2019-03-01T11:36:55.126Z,1.20
2019-03-01T11:39:23.337Z,1.10
2019-03-01T11:41:50.861Z,1.07
2019-03-01T11:44:18.413Z,1.03
2019-03-01T11:46:45.872Z,1.20
2019-03-01T11:49:13.318Z,1.13
2019-03-01T11:51:40.792Z,1.10
2019-03-01T11:54:08.270Z,1.00
2019-03-01T11:56:35.832Z,1.17
2019-03-01T11:59:03.628Z,0.87
2019-03-01T12:01:31.984Z,0.90
2019-03-01T12:03:59.466Z,1.23
2019-03-01T12:06:27.691Z,1.47
2019-03-01T12:08:55.147Z,1.20
2019-03-01T12:11:22.638Z,1.27
2019-03-01T12:13:50.461Z,1.40
2019-03-01T12:16:18.708Z,1.27
2019-03-01T12:18:47.690Z,1.40
2019-03-01T12:21:15.193Z,1.07
2019-03-01T12:23:43.424Z,1.10
2019-03-01T12:26:10.993Z,1.00
2019-03-01T12:28:38.445Z,1.30
2019-03-01T12:31:05.884Z,1.40
2019-03-01T12:33:33.341Z,1.20
2019-03-01T12:36:00.839Z,1.10
2019-03-01T12:38:28.310Z,1.20
2019-03-01T12:40:55.770Z,1.37
2019-03-01T12:43:23.239Z,1.00
2019-03-01T12:45:50.743Z,1.27
2019-03-01T12:48:18.961Z,1.30
2019-03-01T12:50:46.426Z,1.20
2019-03-01T12:53:13.900Z,1.27
2019-03-01T12:55:41.469Z,1.43
2019-03-01T12:58:08.974Z,1.40
2019-03-01T13:00:36.499Z,1.03
2019-03-01T13:03:05.430Z,1.07
2019-03-01T13:05:31.524Z,1.30
2019-03-01T13:07:58.978Z,1.10
2019-03-01T13:10:30.949Z,1.10
2019-03-01T13:12:58.831Z,1.10
2019-03-01T13:15:25.971Z,0.80
2019-03-01T13:17:53.534Z,1.00
2019-03-01T13:20:21.097Z,1.10
2019-03-01T13:22:48.658Z,1.00
2019-03-01T13:25:16.118Z,1.50
2019-03-01T13:27:43.581Z,0.90
2019-03-01T13:30:12.701Z,0.93
2019-03-01T13:35:02.157Z,1.10
2019-03-01T13:37:29.608Z,1.07
2019-03-01T13:39:57.109Z,0.90
2019-03-01T13:42:24.580Z,0.93
2019-03-01T13:44:52.050Z,0.83
2019-03-01T13:47:20.275Z,0.90
2019-03-01T13:49:47.756Z,0.57
2019-03-01T13:52:15.215Z,0.93
2019-03-01T13:54:45.412Z,0.53
2019-03-01T13:57:11.456Z,0.90
2019-03-01T13:59:40.407Z,0.70
2019-03-01T14:02:07.492Z,0.70
2019-03-01T14:04:36.495Z,0.93
2019-03-01T14:07:02.548Z,0.80
2019-03-01T14:09:30.032Z,1.00
2019-03-01T14:11:59.287Z,0.87
2019-03-01T14:14:27.230Z,0.80
2019-03-01T14:16:54.211Z,0.70
2019-03-01T14:19:21.765Z,0.67
2019-03-01T14:21:49.284Z,0.60
2019-03-01T14:24:16.837Z,0.60
2019-03-01T14:26:44.294Z,1.07
2019-03-01T14:29:12.809Z,1.00
2019-03-01T14:31:39.726Z,0.70
2019-03-01T14:34:08.296Z,0.97
2019-03-01T14:36:34.314Z,0.80
2019-03-01T14:39:03.573Z,0.80
2019-03-01T14:41:34.245Z,0.60
2019-03-01T14:43:59.153Z,0.67
2019-03-01T14:46:24.965Z,0.70
2019-03-01T14:48:52.433Z,0.70
2019-03-01T14:51:19.873Z,1.00
2019-03-01T14:53:48.112Z,1.03
2019-03-01T14:56:18.999Z,0.70
2019-03-01T14:58:51.759Z,0.80
2019-03-01T15:01:35.534Z,0.70
2019-03-01T15:04:03.917Z,0.97
2019-03-01T15:06:32.132Z,0.80
2019-03-01T15:08:59.602Z,0.90
2019-03-01T15:11:27.059Z,1.20
2019-03-01T15:13:54.521Z,1.23
2019-03-01T15:16:22.087Z,0.90
2019-03-01T15:18:49.546Z,1.03
2019-03-01T15:21:17.010Z,0.73
2019-03-01T15:23:44.490Z,0.70
2019-03-01T15:26:11.939Z,0.80
2019-03-01T15:28:43.096Z,0.90
2019-03-01T15:31:11.332Z,0.97
2019-03-01T15:33:38.798Z,0.77
2019-03-01T15:36:06.261Z,0.80
2019-03-01T15:38:33.718Z,0.70
2019-03-01T15:41:03.547Z,0.77
2019-03-01T15:43:29.863Z,0.70
2019-03-01T15:45:56.241Z,0.90
2019-03-01T15:48:23.717Z,1.00
2019-03-01T15:50:51.951Z,0.77
2019-03-01T15:53:21.530Z,0.80
2019-03-01T15:55:47.825Z,0.97
2019-03-01T15:58:15.342Z,0.82
2019-03-01T16:00:42.789Z,0.80
2019-03-01T16:03:10.256Z,0.90
2019-03-01T16:05:38.287Z,0.87
2019-03-01T16:08:05.440Z,0.73
2019-03-01T16:10:36.205Z,0.90
2019-03-01T16:13:01.782Z,0.80
2019-03-01T16:15:29.258Z,0.60
2019-03-01T16:17:57.531Z,0.73
2019-03-01T16:20:25.120Z,0.80
2019-03-01T16:22:54.220Z,0.70
2019-03-01T16:25:21.534Z,0.95
2019-03-01T16:27:50.683Z,0.83
2019-03-01T16:30:18.402Z,0.70
2019-03-01T16:32:49.689Z,0.70
2019-03-01T16:35:16.615Z,0.80
2019-03-01T16:37:44.906Z,1.13
2019-03-01T16:40:13.105Z,0.97
2019-03-01T16:42:41.337Z,1.63
2019-03-01T16:45:08.788Z,0.93
2019-03-01T16:47:38.229Z,1.00
2019-03-01T16:50:06.125Z,1.10
2019-03-01T16:52:31.257Z,0.90
2019-03-01T16:54:58.765Z,0.90
2019-03-01T16:57:26.345Z,1.00
2019-03-01T16:59:53.894Z,0.90
2019-03-01T17:02:21.351Z,1.00
2019-03-01T17:04:48.817Z,1.10
2019-03-01T17:07:16.270Z,0.80
2019-03-01T17:09:43.742Z,1.13
2019-03-01T17:12:13.917Z,0.80
2019-03-01T17:14:39.612Z,1.13
2019-03-01T17:17:06.342Z,0.93
2019-03-01T17:19:33.797Z,0.97
2019-03-01T17:22:01.471Z,0.97
2019-03-01T17:24:29.039Z,1.13
2019-03-01T17:26:57.269Z,0.90
2019-03-01T17:29:24.711Z,1.30
2019-03-01T17:31:52.245Z,0.90
2019-03-01T17:34:21.859Z,1.00
2019-03-01T17:36:49.943Z,0.90
2019-03-01T17:39:16.714Z,0.80
2019-03-01T17:41:45.895Z,0.83
2019-03-01T17:44:10.355Z,0.90
2019-03-01T17:46:37.880Z,0.97
2019-03-01T17:49:05.329Z,1.03
2019-03-01T17:51:32.782Z,0.97
2019-03-01T17:54:01.034Z,0.80
2019-03-01T17:56:28.586Z,1.00
2019-03-01T17:58:56.775Z,1.10
2019-03-01T18:01:24.330Z,0.97
2019-03-01T18:03:51.798Z,0.93
2019-03-01T18:06:19.751Z,0.80
2019-03-01T18:08:47.225Z,0.67
2019-03-01T18:11:14.668Z,0.90
2019-03-01T18:13:42.134Z,0.90
2019-03-01T18:16:09.586Z,1.00
2019-03-01T18:18:37.063Z,0.77
2019-03-01T18:21:04.513Z,0.90
2019-03-01T18:23:34.156Z,0.90
2019-03-01T18:26:03.029Z,0.90
2019-03-01T18:28:28.315Z,0.90
2019-03-01T18:30:56.249Z,1.10
2019-03-01T18:33:22.787Z,1.00
2019-03-01T18:35:52.520Z,0.90
2019-03-01T18:38:17.779Z,1.33
2019-03-01T18:40:45.254Z,1.40
2019-03-01T18:43:13.138Z,1.33
2019-03-01T18:45:41.834Z,1.20
2019-03-01T18:48:08.896Z,1.47
2019-03-01T18:50:35.265Z,1.37
2019-03-01T18:53:04.239Z,1.70
2019-03-01T18:55:31.152Z,2.07
2019-03-01T18:57:58.733Z,3.13
2019-03-01T19:00:43.883Z,2.10
2019-03-01T19:03:11.341Z,2.30
2019-03-01T19:05:40.319Z,1.70
2019-03-01T19:08:06.450Z,1.30
2019-03-01T19:10:33.918Z,1.10
2019-03-01T19:13:01.388Z,1.40
2019-03-01T19:15:28.966Z,1.20
2019-03-01T19:17:56.423Z,1.20
2019-03-01T19:20:43.618Z,1.30
2019-03-01T19:23:11.098Z,2.00
2019-03-01T19:25:38.556Z,2.43
2019-03-01T19:28:06.002Z,2.00
2019-03-01T19:30:33.497Z,2.27
2019-03-01T19:33:02.204Z,2.37
2019-03-01T19:35:30.003Z,2.40
2019-03-01T19:37:56.911Z,1.90
2019-03-01T19:40:24.457Z,2.07
2019-03-01T19:42:52.032Z,2.57
2019-03-01T19:45:19.487Z,2.10
2019-03-01T19:47:46.948Z,1.77
2019-03-01T19:50:16.590Z,1.90
2019-03-01T19:52:46.972Z,1.60
2019-03-01T19:55:13.079Z,1.60
2019-03-01T19:57:40.561Z,1.70
2019-03-01T20:00:08.711Z,1.50
2019-03-01T20:02:36.184Z,1.27
2019-03-01T20:05:03.678Z,1.23
2019-03-01T20:07:31.136Z,1.10
2019-03-01T20:09:58.702Z,1.40
2019-03-01T20:12:26.213Z,1.40
2019-03-01T20:14:53.682Z,1.30
2019-03-01T20:17:21.142Z,1.50
2019-03-01T20:19:48.612Z,1.30
2019-03-01T20:22:18.591Z,1.33
2019-03-01T20:24:43.576Z,1.33
2019-03-01T20:27:11.130Z,1.30
2019-03-01T20:29:38.586Z,1.53
2019-03-01T20:32:06.043Z,1.40
2019-03-01T20:34:34.841Z,1.13
2019-03-01T20:37:00.994Z,1.60
2019-03-01T20:39:29.225Z,1.20
2019-03-01T20:41:56.690Z,1.50
2019-03-01T20:44:24.153Z,1.20
2019-03-01T20:46:51.661Z,1.47
2019-03-01T20:49:19.214Z,1.53
2019-03-01T20:51:46.781Z,1.67
2019-03-01T20:54:14.250Z,1.80
2019-03-01T20:56:41.701Z,2.87
2019-03-01T20:59:09.174Z,3.00
2019-03-01T21:01:37.270Z,3.43
2019-03-01T21:04:05.806Z,3.03
2019-03-01T21:06:34.041Z,2.60
2019-03-01T21:09:04.147Z,2.80
2019-03-01T21:11:29.040Z,2.77
2019-03-01T21:13:56.515Z,2.23
2019-03-01T21:16:24.149Z,2.67
2019-03-01T21:18:51.624Z,2.57
2019-03-01T21:21:19.070Z,2.23
2019-03-01T21:23:47.638Z,1.87
2019-03-01T21:26:15.608Z,1.90
2019-03-01T21:28:42.488Z,1.80
2019-03-01T21:31:09.955Z,1.80
2019-03-01T21:33:37.405Z,1.77
2019-03-01T21:36:04.924Z,1.70
2019-03-01T21:38:33.131Z,2.10
2019-03-01T21:41:01.174Z,1.60
2019-03-01T21:43:30.630Z,1.60
2019-03-01T21:45:58.996Z,1.50
2019-03-01T21:48:25.458Z,1.80
2019-03-01T21:50:52.794Z,1.57
2019-03-01T21:53:20.263Z,1.80
2019-03-01T21:55:47.731Z,2.10
2019-03-01T21:58:15.205Z,1.87
2019-03-01T22:00:42.709Z,1.80
2019-03-01T22:03:10.947Z,1.83
2019-03-01T22:05:38.416Z,1.95
2019-03-01T22:08:05.980Z,1.60
2019-03-01T22:10:35.586Z,1.50
2019-03-01T22:13:01.441Z,1.20
2019-03-01T22:15:29.295Z,1.47
2019-03-01T22:17:56.766Z,2.07
2019-03-01T22:20:24.235Z,1.50
2019-03-01T22:22:51.685Z,1.50
2019-03-01T22:25:20.649Z,1.60
2019-03-01T22:27:48.128Z,1.53
2019-03-01T22:30:19.616Z,1.60
2019-03-01T22:32:46.255Z,1.60
2019-03-01T22:35:12.937Z,1.80
2019-03-01T22:37:40.393Z,1.80
2019-03-01T22:40:08.786Z,1.83
2019-03-01T22:42:36.286Z,1.77
2019-03-01T22:45:05.410Z,1.55
2019-03-01T22:47:36.067Z,1.90
2019-03-01T22:50:04.077Z,1.63
2019-03-01T22:52:30.395Z,1.60
2019-03-01T22:54:57.624Z,1.77
2019-03-01T22:57:26.135Z,1.70
2019-03-01T22:59:53.329Z,1.37
2019-03-01T23:02:22.290Z,1.60
2019-03-01T23:04:49.780Z,1.70
2019-03-01T23:07:17.239Z,1.40
2019-03-01T23:09:46.487Z,1.63
2019-03-01T23:12:12.193Z,1.40
2019-03-01T23:14:40.439Z,1.47
2019-03-01T23:17:07.915Z,1.60
2019-03-01T23:19:35.368Z,1.40
2019-03-01T23:22:03.754Z,1.47
2019-03-01T23:24:35.147Z,1.47
2019-03-01T23:27:00.313Z,1.30
2019-03-01T23:29:27.793Z,1.43
2019-03-01T23:31:56.018Z,1.60
2019-03-01T23:34:23.500Z,1.50
2019-03-01T23:36:50.954Z,1.77
2019-03-01T23:39:21.746Z,1.90
2019-03-01T23:41:47.257Z,1.40
2019-03-01T23:44:15.018Z,1.50
2019-03-01T23:46:42.616Z,1.43
2019-03-01T23:49:10.838Z,1.73
2019-03-01T23:51:38.289Z,1.60
2019-03-01T23:54:08.918Z,1.50
2019-03-01T23:56:33.209Z,1.47
2019-03-01T23:59:00.675Z,1.40
